KDAN/DAN METAR and TAF weather

Enter ICAO airport designator
Station Type Date Time Source
KDAN METAR 2022/10/01 01:53 UTC NOAA

KDAN 010153Z AUTO A2968 RMK AO2 PK WND 02037/0120 RAEMM SLPNO P0003 PWINO $


Station Type Date Time Source
KDAN Decoded METAR 2022/10/01 01:53 UTC NOAA

DANVILLE REGIONAL AIRPORT, VA, United States (KDAN) 36-34N 079-20W 175M
Sep 30, 2022 - 09:53 PM EDT / 2022.10.01 0153 UTC
Precipitation last hour: 0.03 inches
Pressure (altimeter): 29.68 in. Hg (1005 hPa)
ob: KDAN 010153Z AUTO A2968 RMK AO2 PK WND 02037/0120 RAEMM SLPNO P0003 PWINO
cycle: 2

Station Type Date Time Source
KDAN TAF 2022/10/01 06:33 UTC NOAA

TAF KDAN 010531Z 0106/0206 04020G32KT 5SM -RA BR OVC007
FM010800 07014G23KT 3SM -RA BR OVC005
FM011400 05008G17KT 4SM -RA OVC006
FM012000 32005KT P6SM OVC009
AMD NOT SKED

Example: see airport list